createdAt,value
2016-07-25T06:36:08.991Z,35
2016-07-25T06:37:09.011Z,35
2016-07-25T06:38:09.039Z,30
2016-07-25T06:39:09.062Z,30
2016-07-25T06:40:09.087Z,30
2016-07-25T06:41:09.109Z,30
2016-07-25T06:42:09.142Z,30
2016-07-25T06:43:09.167Z,30
2016-07-25T06:44:09.191Z,35
2016-07-25T06:45:09.238Z,35
2016-07-25T06:47:09.284Z,40
2016-07-25T06:48:09.310Z,45
2016-07-25T06:49:09.332Z,45
2016-07-25T06:51:09.384Z,45
2016-07-25T06:52:09.413Z,45
2016-07-25T06:53:09.440Z,45
2016-07-25T06:54:09.466Z,45
2016-07-25T06:55:09.491Z,50
2016-07-25T06:56:10.230Z,50
2016-07-25T06:57:09.555Z,50
2016-07-25T06:58:09.573Z,55
2016-07-25T06:59:09.598Z,55
2016-07-25T07:00:09.634Z,55
2016-07-25T07:01:09.658Z,55
2016-07-25T07:02:09.678Z,50
2016-07-25T07:03:09.704Z,50
2016-07-25T07:04:10.007Z,50
2016-07-25T07:05:09.766Z,50
2016-07-25T07:06:09.788Z,45
2016-07-25T07:07:09.819Z,45
2016-07-25T07:08:09.843Z,50
2016-07-25T07:09:09.867Z,50
2016-07-25T07:10:09.900Z,45
2016-07-25T07:11:09.925Z,45
2016-07-25T07:12:09.948Z,45
2016-07-25T07:13:09.978Z,40
2016-07-25T07:14:10.017Z,40
2016-07-25T07:15:10.034Z,40
2016-07-25T07:16:10.060Z,40
2016-07-25T07:17:10.086Z,40
2016-07-25T07:18:10.111Z,40
2016-07-25T07:19:10.839Z,45
2016-07-25T07:20:10.380Z,50
2016-07-25T07:21:10.194Z,55
2016-07-25T07:22:11.455Z,60
2016-07-25T07:23:10.277Z,70
2016-07-25T07:24:10.279Z,80
2016-07-25T07:25:10.312Z,90
2016-07-25T07:26:10.332Z,100
2016-07-25T07:27:10.353Z,115
2016-07-25T07:28:10.390Z,130
2016-07-25T07:29:11.114Z,145
2016-07-25T07:30:10.441Z,360
2016-07-25T07:31:10.479Z,300
2016-07-25T07:32:10.499Z,255
2016-07-25T07:33:10.524Z,550
2016-07-25T07:34:10.545Z,410
2016-07-25T07:35:10.592Z,330
2016-07-25T07:36:10.598Z,385
2016-07-25T07:37:10.629Z,235
2016-07-25T07:38:10.660Z,210
2016-07-25T07:39:10.684Z,240
2016-07-25T07:40:10.711Z,245
2016-07-25T07:41:10.739Z,240
2016-07-25T07:42:10.768Z,265
2016-07-25T07:43:10.791Z,245
2016-07-25T07:44:10.821Z,400
2016-07-25T07:45:10.850Z,330
2016-07-25T07:46:11.588Z,210
2016-07-25T07:47:10.907Z,205
2016-07-25T07:48:10.932Z,200
2016-07-25T07:49:10.974Z,195
2016-07-25T07:50:10.986Z,180
2016-07-25T07:51:11.019Z,205
2016-07-25T07:52:11.048Z,185
2016-07-25T07:53:11.076Z,245
2016-07-25T07:54:11.109Z,205
2016-07-25T07:55:11.129Z,265
2016-07-25T07:56:11.159Z,270
2016-07-25T07:57:11.183Z,340
2016-07-25T07:58:11.220Z,325
2016-07-25T07:59:11.277Z,355
2016-07-25T08:00:11.283Z,280
2016-07-25T08:01:11.308Z,225
2016-07-25T08:02:11.340Z,205
2016-07-25T08:03:11.383Z,185
2016-07-25T08:05:11.428Z,135
2016-07-25T08:06:12.144Z,110
2016-07-25T08:07:11.473Z,100
2016-07-25T08:08:11.510Z,95
2016-07-25T08:09:11.531Z,95
2016-07-25T08:10:11.568Z,100
2016-07-25T08:11:11.588Z,110
2016-07-25T08:12:11.621Z,120
2016-07-25T08:13:11.649Z,130
2016-07-25T08:14:11.677Z,130
2016-07-25T08:15:11.706Z,135
2016-07-25T08:16:11.748Z,135
2016-07-25T08:17:11.765Z,140
2016-07-25T08:18:11.794Z,145
2016-07-25T08:19:11.824Z,160
2016-07-25T08:20:11.852Z,165
2016-07-25T08:21:11.881Z,175
2016-07-25T08:22:11.910Z,190
2016-07-25T08:23:11.932Z,195
2016-07-25T08:24:11.977Z,190
2016-07-25T08:25:12.007Z,180
2016-07-25T08:26:12.024Z,170
2016-07-25T08:27:12.059Z,165
2016-07-25T08:28:12.078Z,160
2016-07-25T08:29:12.115Z,165
2016-07-25T08:30:12.139Z,170
2016-07-25T08:31:12.168Z,170
2016-07-25T08:32:12.215Z,165
2016-07-25T08:33:12.247Z,160
2016-07-25T08:34:12.354Z,155
2016-07-25T08:35:12.284Z,150
2016-07-25T08:36:12.314Z,160
2016-07-25T08:37:12.343Z,160
2016-07-25T08:38:12.370Z,160
2016-07-25T08:39:12.413Z,160
2016-07-25T08:40:12.668Z,155
2016-07-25T08:41:12.457Z,145
2016-07-25T08:42:12.484Z,135
2016-07-25T08:43:12.517Z,130
2016-07-25T08:44:12.545Z,125
2016-07-25T08:45:12.584Z,125
2016-07-25T08:46:12.607Z,120
2016-07-25T08:47:12.636Z,125
2016-07-25T08:48:12.664Z,125
2016-07-25T08:49:12.689Z,130
2016-07-25T08:50:12.723Z,140
2016-07-25T08:51:12.752Z,145
2016-07-25T08:52:12.778Z,150
2016-07-25T08:53:12.808Z,150
2016-07-25T08:54:12.835Z,155
2016-07-25T08:55:12.866Z,155
2016-07-25T08:56:12.896Z,155
2016-07-25T08:57:12.933Z,160
2016-07-25T08:58:12.956Z,165
2016-07-25T08:59:12.981Z,160
2016-07-25T09:00:13.223Z,160
2016-07-25T09:01:13.050Z,160
2016-07-25T09:02:13.099Z,175
2016-07-25T09:03:13.108Z,175
2016-07-25T09:04:13.134Z,185
2016-07-25T09:05:13.165Z,170
2016-07-25T09:06:13.192Z,160
2016-07-25T09:07:13.233Z,145
2016-07-25T09:08:13.249Z,145
2016-07-25T09:09:13.276Z,145
2016-07-25T09:10:14.274Z,145
2016-07-25T09:11:13.337Z,145
2016-07-25T09:12:13.365Z,150
2016-07-25T09:13:13.396Z,160
2016-07-25T09:14:13.427Z,165
2016-07-25T09:15:13.453Z,170
2016-07-25T09:16:13.482Z,175
2016-07-25T09:17:13.514Z,170
2016-07-25T09:18:13.540Z,170
2016-07-25T09:19:13.568Z,170
2016-07-25T09:20:13.598Z,175
2016-07-25T09:21:13.627Z,170
2016-07-25T09:22:13.798Z,165
2016-07-25T09:23:13.685Z,170
2016-07-25T09:24:13.710Z,165
2016-07-25T09:25:13.742Z,165
2016-07-25T09:26:13.763Z,165
2016-07-25T09:27:13.795Z,165
2016-07-25T09:28:13.824Z,160
2016-07-25T09:29:13.852Z,150
2016-07-25T09:30:13.877Z,140
2016-07-25T09:31:13.912Z,130
2016-07-25T09:32:13.939Z,125
2016-07-25T09:33:13.965Z,125
2016-07-25T09:34:13.995Z,125
2016-07-25T09:35:14.021Z,125
2016-07-25T09:36:14.100Z,125
2016-07-25T09:37:14.079Z,125
2016-07-25T09:38:14.108Z,125
2016-07-25T09:39:14.132Z,120
2016-07-25T09:40:14.170Z,115
2016-07-25T09:41:14.195Z,115
2016-07-25T09:42:14.222Z,115
2016-07-25T09:43:14.259Z,120
2016-07-25T09:44:14.287Z,120
2016-07-25T09:45:14.311Z,125
2016-07-25T09:46:14.339Z,130
2016-07-25T09:47:14.368Z,140
2016-07-25T09:48:15.114Z,145
2016-07-25T09:49:14.425Z,145
2016-07-25T09:50:14.457Z,145
2016-07-25T09:51:14.486Z,145
2016-07-25T09:52:14.515Z,145
2016-07-25T09:53:14.548Z,145
2016-07-25T09:54:14.567Z,145
2016-07-25T09:55:14.601Z,150
2016-07-25T09:56:14.632Z,150
2016-07-25T09:57:14.665Z,155
2016-07-25T09:58:14.700Z,165
2016-07-25T09:59:14.727Z,165
2016-07-25T10:00:14.749Z,170
2016-07-25T10:01:14.780Z,170
2016-07-25T10:02:14.816Z,165
2016-07-25T10:03:14.837Z,165
2016-07-25T10:04:14.872Z,165
2016-07-25T10:05:14.897Z,160
2016-07-25T10:06:14.927Z,160
2016-07-25T10:07:14.955Z,155
2016-07-25T10:08:14.981Z,155
2016-07-25T10:09:15.016Z,155
2016-07-25T10:10:15.052Z,155
2016-07-25T10:11:15.074Z,155
2016-07-25T10:12:15.106Z,155
2016-07-25T10:13:15.129Z,160
2016-07-25T10:14:15.163Z,160
2016-07-25T10:15:15.199Z,165
2016-07-25T10:16:15.220Z,165
2016-07-25T10:17:15.256Z,165
2016-07-25T10:18:15.978Z,165
2016-07-25T10:19:15.310Z,160
2016-07-25T10:20:15.341Z,160
2016-07-25T10:21:15.382Z,160
2016-07-25T10:22:15.403Z,160
2016-07-25T10:23:15.432Z,160
2016-07-25T10:24:15.468Z,160
2016-07-25T10:25:15.488Z,160
2016-07-25T10:26:15.517Z,160
2016-07-25T10:27:15.551Z,160
2016-07-25T10:28:15.576Z,160
2016-07-25T10:29:15.609Z,160
2016-07-25T10:30:15.638Z,165
2016-07-25T10:31:15.670Z,165
2016-07-25T10:32:15.700Z,165
2016-07-25T10:33:15.735Z,165
2016-07-25T10:34:15.759Z,165
2016-07-25T10:35:15.787Z,165
2016-07-25T10:36:15.832Z,160
2016-07-25T10:37:15.856Z,160
2016-07-25T10:38:15.884Z,160
2016-07-25T10:39:15.911Z,155
2016-07-25T10:40:15.942Z,155
2016-07-25T10:41:15.970Z,155
2016-07-25T10:42:15.996Z,155
2016-07-25T10:43:16.031Z,160
2016-07-25T10:44:16.058Z,160
2016-07-25T10:45:16.092Z,150
2016-07-25T10:46:16.122Z,145
2016-07-25T10:47:16.147Z,145
2016-07-25T10:48:16.180Z,130
2016-07-25T10:49:16.218Z,130
2016-07-25T10:50:16.337Z,135
2016-07-25T10:51:16.274Z,135
2016-07-25T10:52:16.296Z,135
2016-07-25T10:53:16.327Z,140
2016-07-25T10:54:16.358Z,145
2016-07-25T10:55:16.395Z,145
2016-07-25T10:56:16.419Z,145
2016-07-25T10:57:16.444Z,140
2016-07-25T10:58:16.478Z,140
2016-07-25T10:59:16.507Z,135
2016-07-25T11:00:16.536Z,135
2016-07-25T11:01:16.573Z,145
2016-07-25T11:02:16.598Z,150
2016-07-25T11:03:17.326Z,150
2016-07-25T11:04:16.659Z,155
2016-07-25T11:05:16.689Z,155
2016-07-25T11:06:16.716Z,155
2016-07-25T11:07:16.745Z,160
2016-07-25T11:08:16.791Z,180
2016-07-25T11:09:16.806Z,180
2016-07-25T11:10:16.835Z,175
2016-07-25T11:11:16.870Z,170
2016-07-25T11:12:16.898Z,160
2016-07-25T11:13:16.924Z,150
2016-07-25T11:14:16.956Z,155
2016-07-25T11:15:16.990Z,125
2016-07-25T11:16:17.019Z,120
2016-07-25T11:17:17.043Z,115
2016-07-25T11:18:17.079Z,110
2016-07-25T11:19:17.111Z,115
2016-07-25T11:20:17.140Z,120
2016-07-25T11:21:17.172Z,125
2016-07-25T11:22:17.196Z,120
2016-07-25T11:23:17.234Z,125
2016-07-25T11:24:17.260Z,130
2016-07-25T11:25:17.290Z,130
2016-07-25T11:26:17.322Z,145
2016-07-25T11:27:17.352Z,125
2016-07-25T11:28:17.386Z,115
2016-07-25T11:29:17.409Z,125
2016-07-25T11:30:17.440Z,135
2016-07-25T11:31:17.470Z,130
2016-07-25T11:32:17.498Z,130
2016-07-25T11:33:17.534Z,130
2016-07-25T11:34:17.559Z,125
2016-07-25T11:35:17.593Z,115
2016-07-25T11:36:18.632Z,105
2016-07-25T11:37:17.654Z,90
2016-07-25T11:38:17.696Z,80
2016-07-25T11:39:17.710Z,70
2016-07-25T11:40:17.744Z,70
2016-07-25T11:41:17.777Z,75
2016-07-25T11:42:17.805Z,90
2016-07-25T11:43:17.835Z,95
2016-07-25T11:44:17.861Z,95
2016-07-25T11:45:17.904Z,100
2016-07-25T11:46:17.927Z,105
2016-07-25T11:47:17.955Z,100
2016-07-25T11:48:17.986Z,90
2016-07-25T11:49:18.013Z,90
2016-07-25T11:50:18.048Z,95
2016-07-25T11:51:18.073Z,95
2016-07-25T11:52:18.108Z,100
2016-07-25T11:53:18.135Z,110
2016-07-25T11:54:18.165Z,120
2016-07-25T11:55:18.196Z,120
2016-07-25T11:56:18.234Z,120
2016-07-25T11:57:18.254Z,120
2016-07-25T11:58:18.287Z,120
2016-07-25T11:59:18.314Z,120
2016-07-25T12:00:18.345Z,120
2016-07-25T12:01:18.387Z,120
2016-07-25T12:02:18.408Z,105
2016-07-25T12:03:18.437Z,95
2016-07-25T12:04:18.467Z,95
2016-07-25T12:05:18.497Z,95
2016-07-25T12:06:18.525Z,100
2016-07-25T12:07:18.558Z,105
2016-07-25T12:08:18.603Z,125
2016-07-25T12:09:18.613Z,120
2016-07-25T12:10:18.649Z,125
2016-07-25T12:11:18.689Z,140
2016-07-25T12:12:19.405Z,140
2016-07-25T12:13:18.736Z,135
2016-07-25T12:14:18.767Z,125
2016-07-25T12:15:18.796Z,115
2016-07-25T12:16:18.829Z,120
2016-07-25T12:17:19.557Z,115
2016-07-25T12:18:18.886Z,120
2016-07-25T12:19:18.920Z,110
2016-07-25T12:20:18.949Z,100
2016-07-25T12:21:18.979Z,80
2016-07-25T12:22:19.013Z,85
2016-07-25T12:23:19.038Z,70
2016-07-25T12:24:19.069Z,80
2016-07-25T12:25:19.095Z,65
2016-07-25T12:26:19.128Z,65
2016-07-25T12:27:19.167Z,70
2016-07-25T12:28:19.191Z,75
2016-07-25T12:29:19.229Z,70
2016-07-25T12:30:19.243Z,75
2016-07-25T12:31:19.275Z,75
2016-07-25T12:32:19.302Z,95
2016-07-25T12:33:19.337Z,90
2016-07-25T12:34:20.064Z,70
2016-07-25T12:35:19.397Z,95
2016-07-25T12:36:19.577Z,100
2016-07-25T12:37:19.449Z,105
2016-07-25T12:38:19.492Z,100
2016-07-25T12:39:19.515Z,90
2016-07-25T12:40:19.547Z,80
2016-07-25T12:41:19.575Z,55
2016-07-25T12:42:19.601Z,60
2016-07-25T12:43:19.635Z,80
2016-07-25T12:44:19.667Z,85
2016-07-25T12:45:19.702Z,60
2016-07-25T12:46:19.725Z,80
2016-07-25T12:47:19.751Z,80
2016-07-25T12:48:19.788Z,80
2016-07-25T12:49:19.822Z,80
2016-07-25T12:50:19.850Z,75
2016-07-25T12:51:19.875Z,70
2016-07-25T12:52:19.904Z,70
2016-07-25T12:53:20.637Z,65
2016-07-25T12:54:19.974Z,65
2016-07-25T12:55:19.998Z,65
2016-07-25T12:56:20.021Z,65
2016-07-25T12:57:20.052Z,65
2016-07-25T12:58:20.082Z,65
2016-07-25T12:59:20.105Z,70
2016-07-25T13:00:20.142Z,70
2016-07-25T13:01:20.170Z,50
2016-07-25T13:02:20.201Z,75
2016-07-25T13:03:20.232Z,80
2016-07-25T13:04:20.268Z,85
2016-07-25T13:05:20.291Z,80
2016-07-25T13:06:20.319Z,75
2016-07-25T13:07:20.352Z,50
2016-07-25T13:08:20.389Z,80
2016-07-25T13:09:20.408Z,80
2016-07-25T13:10:20.440Z,80
2016-07-25T13:11:20.468Z,80
2016-07-25T13:12:20.501Z,90
2016-07-25T13:13:20.525Z,95
2016-07-25T13:14:20.557Z,90
2016-07-25T13:15:20.589Z,90
2016-07-25T13:16:20.617Z,80
2016-07-25T13:17:20.646Z,85
2016-07-25T13:18:20.673Z,95
2016-07-25T13:19:20.708Z,105
2016-07-25T13:20:20.737Z,100
2016-07-25T13:21:20.769Z,100
2016-07-25T13:22:20.796Z,95
2016-07-25T13:23:20.819Z,95
2016-07-25T13:24:20.854Z,95
2016-07-25T13:25:20.879Z,95
2016-07-25T13:26:20.917Z,100
2016-07-25T13:27:20.944Z,100
2016-07-25T13:28:20.972Z,100
2016-07-25T13:29:21.002Z,100
2016-07-25T13:30:21.029Z,105
2016-07-25T13:31:21.064Z,105
2016-07-25T13:32:21.088Z,110
2016-07-25T13:33:21.124Z,110
2016-07-25T13:34:21.430Z,110
2016-07-25T13:35:21.182Z,110
2016-07-25T13:36:21.207Z,110
2016-07-25T13:37:21.249Z,110
2016-07-25T13:38:21.270Z,115
2016-07-25T13:39:21.317Z,115
2016-07-25T13:40:21.332Z,115
2016-07-25T13:41:21.365Z,115
2016-07-25T13:42:21.404Z,115
2016-07-25T13:43:21.422Z,110
2016-07-25T13:44:21.452Z,115
2016-07-25T13:45:21.477Z,115
2016-07-25T13:46:21.511Z,115
2016-07-25T13:47:21.548Z,115
2016-07-25T13:48:21.576Z,120
2016-07-25T13:49:21.604Z,120
2016-07-25T13:50:21.629Z,120
2016-07-25T13:51:21.663Z,120
2016-07-25T13:52:21.693Z,120
2016-07-25T13:53:21.720Z,115
2016-07-25T13:54:21.754Z,115
2016-07-25T13:55:21.792Z,110
2016-07-25T13:56:21.813Z,110
2016-07-25T13:57:21.843Z,110
2016-07-25T13:58:21.876Z,110
2016-07-25T13:59:21.907Z,110
2016-07-25T14:00:21.935Z,110
2016-07-25T14:01:21.964Z,110
2016-07-25T14:02:21.995Z,110
2016-07-25T14:03:22.025Z,110
2016-07-25T14:04:22.053Z,110
2016-07-25T14:05:22.083Z,110
2016-07-25T14:06:22.117Z,110
2016-07-25T14:07:22.140Z,110
2016-07-25T14:08:22.171Z,110
2016-07-25T14:09:22.208Z,110
2016-07-25T14:10:22.233Z,110
2016-07-25T14:11:22.263Z,110
2016-07-25T14:12:22.290Z,110
2016-07-25T14:13:22.318Z,105
2016-07-25T14:14:23.054Z,105
2016-07-25T14:15:22.382Z,110
2016-07-25T14:16:22.421Z,110
2016-07-25T14:17:22.444Z,110
2016-07-25T14:18:22.468Z,110
2016-07-25T14:19:22.503Z,105
2016-07-25T14:20:22.537Z,105
2016-07-25T14:21:22.561Z,105
2016-07-25T14:22:22.600Z,105
2016-07-25T14:23:22.635Z,105
2016-07-25T14:24:22.654Z,105
2016-07-25T14:25:22.689Z,100
2016-07-25T14:26:22.713Z,100
2016-07-25T14:27:22.739Z,100
2016-07-25T14:28:22.772Z,100
2016-07-25T14:29:22.806Z,100
2016-07-25T14:30:22.833Z,100
2016-07-25T14:31:23.564Z,100
2016-07-25T14:32:22.896Z,100
2016-07-25T14:33:22.938Z,100
2016-07-25T14:34:22.950Z,100
2016-07-25T14:35:22.987Z,105
2016-07-25T14:36:23.062Z,105
2016-07-25T14:37:23.048Z,105
2016-07-25T14:38:23.085Z,105
2016-07-25T14:39:23.104Z,105
2016-07-25T14:40:23.136Z,105
2016-07-25T14:41:23.163Z,105
2016-07-25T14:42:23.200Z,105
2016-07-25T14:43:23.224Z,105
2016-07-25T14:44:23.259Z,105
2016-07-25T14:45:23.284Z,105
2016-07-25T14:46:23.318Z,110
2016-07-25T14:47:23.343Z,105
2016-07-25T14:48:23.382Z,105
2016-07-25T14:49:23.405Z,105
2016-07-25T14:50:23.441Z,105
2016-07-25T14:51:23.470Z,100
2016-07-25T14:52:23.502Z,100
2016-07-25T14:53:23.528Z,100
2016-07-25T14:54:23.559Z,100
2016-07-25T14:55:23.591Z,100
2016-07-25T14:56:23.616Z,100
2016-07-25T14:57:23.653Z,100
2016-07-25T14:58:23.677Z,100
2016-07-25T14:59:23.725Z,100
2016-07-25T15:00:23.747Z,100
2016-07-25T15:01:23.778Z,95
2016-07-25T15:02:23.802Z,95
2016-07-25T15:03:23.832Z,95
2016-07-25T15:04:23.864Z,100
2016-07-25T15:05:23.892Z,100
2016-07-25T15:06:23.929Z,100
2016-07-25T15:07:23.951Z,100
2016-07-25T15:08:23.983Z,100
2016-07-25T15:09:24.013Z,100
2016-07-25T15:10:24.046Z,100
2016-07-25T15:11:24.077Z,100
2016-07-25T15:12:24.106Z,100
2016-07-25T15:13:24.137Z,100
2016-07-25T15:14:24.170Z,100
2016-07-25T15:15:24.193Z,100
2016-07-25T15:16:24.227Z,95
2016-07-25T15:17:24.256Z,95
2016-07-25T15:18:24.283Z,95
2016-07-25T15:19:24.328Z,95
2016-07-25T15:20:24.344Z,90
2016-07-25T15:21:24.380Z,90
2016-07-25T15:22:24.406Z,90
2016-07-25T15:23:24.438Z,90
2016-07-25T15:24:24.472Z,90
2016-07-25T15:25:24.498Z,90
2016-07-25T15:26:24.530Z,90
2016-07-25T15:27:24.556Z,90
2016-07-25T15:28:24.592Z,90
2016-07-25T15:29:24.617Z,90
2016-07-25T15:30:24.652Z,90
2016-07-25T15:31:24.678Z,90
2016-07-25T15:32:24.725Z,85
2016-07-25T15:33:24.737Z,85
2016-07-25T15:34:24.784Z,85
2016-07-25T15:35:24.805Z,85
2016-07-25T15:36:24.884Z,85
2016-07-25T15:37:24.863Z,85
2016-07-25T15:38:24.895Z,85
2016-07-25T15:39:24.925Z,90
2016-07-25T15:40:24.956Z,90
2016-07-25T15:41:24.982Z,90
2016-07-25T15:42:25.018Z,95
2016-07-25T15:43:25.046Z,95
2016-07-25T15:44:25.075Z,90
2016-07-25T15:45:25.104Z,85
2016-07-25T15:46:25.135Z,80
2016-07-25T15:47:25.192Z,80
2016-07-25T15:48:25.195Z,75
2016-07-25T15:49:25.227Z,75
2016-07-25T15:50:25.267Z,70
2016-07-25T15:51:25.287Z,70
2016-07-25T15:52:25.316Z,75
2016-07-25T15:53:25.351Z,70
2016-07-25T15:54:25.377Z,70
2016-07-25T15:55:25.414Z,70
2016-07-25T15:56:25.438Z,80
2016-07-25T15:57:25.475Z,70
2016-07-25T15:58:25.498Z,65
2016-07-25T15:59:25.534Z,65
2016-07-25T16:00:25.563Z,65
2016-07-25T16:01:25.593Z,65
2016-07-25T16:02:25.633Z,65
2016-07-25T16:03:25.653Z,65
2016-07-25T16:04:25.679Z,65
2016-07-25T16:05:25.715Z,65
2016-07-25T16:06:25.752Z,60
2016-07-25T16:07:25.773Z,60
2016-07-25T16:08:25.810Z,65
2016-07-25T16:09:25.832Z,65
2016-07-25T16:10:25.865Z,70
2016-07-25T16:11:25.898Z,70
2016-07-25T16:12:26.626Z,70
2016-07-25T16:13:25.952Z,70
2016-07-25T16:14:25.991Z,75
2016-07-25T16:15:26.712Z,75
2016-07-25T16:16:26.050Z,70
2016-07-25T16:17:26.090Z,70
2016-07-25T16:18:26.108Z,70
2016-07-25T16:19:26.137Z,65
2016-07-25T16:20:26.167Z,65
2016-07-25T16:21:26.200Z,65
2016-07-25T16:22:26.229Z,65
2016-07-25T16:23:26.261Z,60
2016-07-25T16:24:26.291Z,60
2016-07-25T16:25:26.320Z,60
2016-07-25T16:26:26.350Z,60
2016-07-25T16:27:26.381Z,60
2016-07-25T16:28:26.416Z,60
2016-07-25T16:29:26.440Z,60
2016-07-25T16:30:26.468Z,65
2016-07-25T16:31:26.502Z,65
2016-07-25T16:32:26.529Z,65
2016-07-25T16:33:26.568Z,65
2016-07-25T16:34:26.587Z,65
2016-07-25T16:35:26.629Z,70
2016-07-25T16:36:27.856Z,65
2016-07-25T16:37:26.695Z,65
2016-07-25T16:38:26.706Z,60
2016-07-25T16:39:26.738Z,60
2016-07-25T16:40:26.768Z,60
2016-07-25T16:41:26.801Z,60
2016-07-25T16:42:26.827Z,55
2016-07-25T16:43:26.866Z,55
2016-07-25T16:44:26.892Z,55
2016-07-25T16:45:27.619Z,50
2016-07-25T16:46:26.953Z,50
2016-07-25T16:47:26.997Z,45
2016-07-25T16:48:27.014Z,45
2016-07-25T16:49:27.040Z,45
2016-07-25T16:50:27.074Z,45
2016-07-25T16:51:27.101Z,45
2016-07-25T16:52:27.142Z,50
2016-07-25T16:53:27.159Z,45
2016-07-25T16:54:27.194Z,45
2016-07-25T16:55:27.221Z,45
2016-07-25T16:56:27.266Z,40
2016-07-25T16:57:27.289Z,40
2016-07-25T16:58:27.316Z,40
2016-07-25T16:59:27.342Z,35
2016-07-25T17:00:27.377Z,35
2016-07-25T17:01:27.405Z,35
2016-07-25T17:02:27.433Z,40
2016-07-25T17:03:27.464Z,40
2016-07-25T17:04:27.495Z,35
2016-07-25T17:05:27.521Z,40
2016-07-25T17:06:27.553Z,40
2016-07-25T17:07:27.582Z,45
2016-07-25T17:08:27.613Z,45
2016-07-25T17:09:27.643Z,45
2016-07-25T17:10:27.674Z,45
2016-07-25T17:11:27.704Z,45
2016-07-25T17:12:27.735Z,45
2016-07-25T17:13:27.779Z,45
2016-07-25T17:14:27.791Z,45
2016-07-25T17:15:27.820Z,45
2016-07-25T17:16:27.853Z,45
2016-07-25T17:17:27.895Z,45
2016-07-25T17:18:27.915Z,45
2016-07-25T17:19:27.937Z,45
2016-07-25T17:20:27.973Z,45
2016-07-25T17:21:28.007Z,45
2016-07-25T17:22:28.030Z,45
2016-07-25T17:23:28.067Z,45
2016-07-25T17:24:28.091Z,45
2016-07-25T17:25:28.134Z,45
2016-07-25T17:26:28.148Z,40
2016-07-25T17:27:28.912Z,40
2016-07-25T17:28:28.222Z,40
2016-07-25T17:29:28.252Z,40
2016-07-25T17:30:28.279Z,40
2016-07-25T17:31:28.306Z,45
2016-07-25T17:32:28.358Z,45
2016-07-25T17:33:28.362Z,45
2016-07-25T17:34:28.391Z,40
2016-07-25T17:35:28.420Z,40
2016-07-25T17:36:28.504Z,40
2016-07-25T17:37:28.483Z,40
2016-07-25T17:38:28.511Z,40
2016-07-25T17:39:28.554Z,40
2016-07-25T17:40:28.569Z,40
2016-07-25T17:41:28.608Z,35
2016-07-25T17:42:28.636Z,40
2016-07-25T17:43:28.668Z,35
2016-07-25T17:44:28.692Z,35
2016-07-25T17:45:28.727Z,35
2016-07-25T17:46:28.752Z,35
2016-07-25T17:48:28.810Z,35
2016-07-25T17:49:28.840Z,35
2016-07-25T17:50:28.873Z,35
2016-07-25T17:51:28.904Z,35
2016-07-25T17:52:28.931Z,35
2016-07-25T17:53:28.959Z,35
2016-07-25T17:54:28.987Z,35
2016-07-25T17:55:29.021Z,35
2016-07-25T17:56:29.044Z,35
2016-07-25T17:57:29.078Z,35
2016-07-25T17:58:29.114Z,35
2016-07-25T17:59:29.137Z,30
2016-07-25T18:00:29.172Z,30
2016-07-25T18:01:29.192Z,30
2016-07-25T18:03:29.256Z,35
2016-07-25T18:04:29.301Z,35
2016-07-25T18:05:29.311Z,35
2016-07-25T18:06:29.342Z,35
2016-07-25T18:07:29.376Z,35
2016-07-25T18:08:29.407Z,35
2016-07-25T18:09:29.439Z,35
2016-07-25T18:10:29.465Z,30
2016-07-25T18:11:29.492Z,30
2016-07-25T18:12:29.530Z,30
2016-07-25T18:13:29.554Z,30
2016-07-25T18:14:29.581Z,30
2016-07-25T18:15:29.625Z,25
2016-07-25T18:16:29.644Z,25
2016-07-25T18:18:29.700Z,25
2016-07-25T18:19:29.734Z,25
2016-07-25T18:20:29.759Z,25
2016-07-25T18:21:29.792Z,25
2016-07-25T18:22:29.819Z,25
2016-07-25T18:23:29.851Z,25
2016-07-25T18:24:29.881Z,25
2016-07-25T18:25:29.910Z,25
2016-07-25T18:26:29.937Z,25
2016-07-25T18:27:29.972Z,25
2016-07-25T18:28:30.008Z,20
2016-07-25T18:29:30.029Z,20
2016-07-25T18:30:30.067Z,20
2016-07-25T18:31:30.086Z,20
2016-07-25T18:32:30.145Z,20
2016-07-25T18:33:30.147Z,20
2016-07-25T18:34:30.188Z,20
2016-07-25T18:35:30.204Z,20
2016-07-25T18:36:30.287Z,20
2016-07-25T18:37:30.262Z,20
2016-07-25T18:38:30.299Z,15
2016-07-25T18:39:30.324Z,15
2016-07-25T18:40:30.352Z,15
2016-07-25T18:41:30.386Z,15
2016-07-25T18:42:30.412Z,15
2016-07-25T18:43:30.445Z,15
2016-07-25T18:44:30.475Z,15
2016-07-25T18:45:30.500Z,15
2016-07-25T18:46:30.533Z,10
2016-07-25T18:47:30.558Z,10
2016-07-25T18:48:30.592Z,10
2016-07-25T18:49:30.617Z,10
2016-07-25T18:50:30.657Z,10
2016-07-25T18:51:30.677Z,10
2016-07-25T18:52:30.710Z,10
2016-07-25T18:53:30.747Z,10
2016-07-25T18:54:30.762Z,10
2016-07-25T18:55:30.806Z,10
2016-07-25T18:56:30.826Z,10
2016-07-25T18:57:30.856Z,10
2016-07-25T18:58:30.884Z,5
2016-07-25T18:59:30.916Z,5
2016-07-25T19:00:30.943Z,5
2016-07-25T19:01:30.969Z,5
2016-07-25T19:03:31.029Z,5
2016-07-25T19:04:31.063Z,5
2016-07-25T19:05:31.091Z,5
2016-07-25T19:06:31.145Z,5
2016-07-25T19:07:31.153Z,5
2016-07-25T19:08:31.177Z,5
2016-07-25T19:09:31.215Z,5
2016-07-25T19:10:31.240Z,5
2016-07-25T19:11:31.266Z,5
2016-07-25T19:12:31.295Z,5
2016-07-25T19:13:31.325Z,5
2016-07-25T19:14:31.359Z,5
2016-07-25T19:15:31.381Z,5
2016-07-25T19:16:31.414Z,0
2016-07-25T19:17:31.471Z,0
2016-07-25T19:18:31.475Z,0
2016-07-25T19:19:31.500Z,0
2016-07-25T19:20:31.532Z,0
2016-07-25T19:21:31.563Z,0
2016-07-25T19:22:31.586Z,0
2016-07-25T19:23:32.324Z,0
2016-07-25T19:24:31.655Z,0
2016-07-25T19:25:31.676Z,0
2016-07-25T19:26:31.706Z,0
2016-07-25T19:27:31.731Z,0
2016-07-25T19:28:31.764Z,0
2016-07-25T19:29:31.798Z,0
2016-07-25T19:30:31.821Z,0
2016-07-25T19:31:31.852Z,0
2016-07-25T19:33:31.921Z,0
2016-07-25T19:34:31.934Z,0
2016-07-25T19:35:31.967Z,0
2016-07-25T19:36:31.995Z,0
2016-07-25T19:37:32.023Z,0
2016-07-25T19:38:32.050Z,0
2016-07-25T19:39:32.082Z,0
2016-07-25T19:40:32.113Z,0
2016-07-25T19:41:32.137Z,0
2016-07-25T19:42:32.166Z,0
2016-07-25T19:43:32.197Z,0
2016-07-25T19:44:32.227Z,0
2016-07-25T19:45:32.254Z,0
2016-07-25T19:46:32.282Z,0
2016-07-25T19:48:32.346Z,0
2016-07-25T19:49:32.373Z,0
2016-07-25T19:50:32.399Z,0
2016-07-25T19:51:32.423Z,0
2016-07-25T19:52:32.456Z,0
2016-07-25T19:53:32.482Z,0
2016-07-25T19:54:32.513Z,0
2016-07-25T19:55:32.542Z,0
2016-07-25T19:56:32.574Z,0
2016-07-25T19:57:32.598Z,0
2016-07-25T19:58:32.627Z,0
2016-07-25T19:59:32.656Z,0
2016-07-25T20:00:32.681Z,0
2016-07-25T20:01:32.708Z,0
2016-07-25T20:03:32.766Z,0
2016-07-25T20:04:32.798Z,0
2016-07-25T20:05:33.527Z,0
2016-07-25T20:06:32.850Z,0
2016-07-25T20:07:32.881Z,0
2016-07-25T20:08:32.906Z,0
2016-07-25T20:09:32.943Z,0
2016-07-25T20:10:32.966Z,0
2016-07-25T20:11:33.005Z,0
2016-07-25T20:12:33.024Z,0
2016-07-25T20:13:33.048Z,0
2016-07-25T20:14:33.088Z,0
2016-07-25T20:15:33.116Z,0
2016-07-25T20:16:33.134Z,0
2016-07-25T20:17:33.166Z,0
2016-07-25T20:18:33.188Z,0
2016-07-25T20:19:33.221Z,0
2016-07-25T20:20:33.254Z,0
2016-07-25T20:21:33.272Z,0
2016-07-25T20:22:33.304Z,0
2016-07-25T20:23:33.348Z,0
2016-07-25T20:24:33.360Z,0
2016-07-25T20:25:33.391Z,0
2016-07-25T20:26:34.123Z,0
2016-07-25T20:27:33.442Z,0
2016-07-25T20:28:33.469Z,0
2016-07-25T20:29:33.508Z,0
2016-07-25T20:30:33.532Z,0
2016-07-25T20:31:33.571Z,0
2016-07-25T20:32:33.582Z,0
2016-07-25T20:33:33.608Z,0
2016-07-25T20:34:33.642Z,0
2016-07-25T20:35:33.665Z,0
2016-07-25T20:36:33.695Z,0
2016-07-25T20:37:33.718Z,0
2016-07-25T20:38:33.751Z,0
2016-07-25T20:39:33.780Z,0
2016-07-25T20:40:33.802Z,0
2016-07-25T20:41:33.837Z,0
2016-07-25T20:42:33.862Z,0
2016-07-25T20:43:33.892Z,0
2016-07-25T20:44:33.918Z,0
2016-07-25T20:45:33.948Z,0
2016-07-25T20:46:33.975Z,0
2016-07-25T20:47:33.999Z,0
2016-07-25T20:48:34.040Z,0
2016-07-25T20:49:34.076Z,0
2016-07-25T20:50:34.786Z,0
2016-07-25T20:51:34.125Z,0